Terminal Aerodrome Forecast
Issued by NWS

Home | Current Version | Previous Version | Text Only | Print | Product List | Glossary Off
Versions: 1 2 3 4 5 6 7 8 9 10 11 12 13 14 15 16 17 18 19 20 21 22 23 24 25 26 27

000
FTUS43 KLOT 142131 AAA
TAFORD
TAF AMD
KORD 142131Z 1422/1524 18012KT P6SM BKN050 OVC180
     FM150000 16012KT 5SM -SN BKN030 OVC050
     FM150130 16012G18KT 1 1/2SM -SN BKN018 OVC025
     FM150500 17012G18KT 1 1/2SM -SN SCT009 OVC012
     FM151600 21007KT 4SM -SN OVC010
     FM152000 27008KT 6SM -SN OVC010=

USA.gov is the U.S. government's official web portal to all federal, state and local government web resources and services.